createdAt,value
2022-09-25T00:01:10.963Z,100213.41
2022-09-25T00:03:38.671Z,100209.66
2022-09-25T00:06:15.885Z,100212.09
2022-09-25T00:08:43.873Z,100206.59
2022-09-25T00:11:24.746Z,100203.38
2022-09-25T00:13:52.113Z,100209.31
2022-09-25T00:16:24.475Z,100207.50
2022-09-25T00:19:10.419Z,100203.56
2022-09-25T00:21:38.445Z,100206.25
2022-09-25T00:24:09.705Z,100207.59
2022-09-25T00:26:41.007Z,100207.53
2022-09-25T00:29:13.864Z,100203.50
2022-09-25T00:31:40.824Z,100205.63
2022-09-25T00:34:08.509Z,100203.34
2022-09-25T00:36:35.939Z,100206.81
2022-09-25T00:39:02.956Z,100206.38
2022-09-25T00:41:32.113Z,100202.94
2022-09-25T00:44:01.833Z,100197.69
2022-09-25T00:46:38.317Z,100206.66
2022-09-25T00:49:22.395Z,100197.22
2022-09-25T00:52:06.720Z,100193.28
2022-09-25T00:54:53.221Z,100200.31
2022-09-25T00:57:26.749Z,100199.88
2022-09-25T01:00:00.693Z,100195.72
2022-09-25T01:02:33.617Z,100193.94
2022-09-25T01:05:11.001Z,100199.25
2022-09-25T01:07:41.939Z,100200.22
2022-09-25T01:10:10.465Z,100191.66
2022-09-25T01:12:43.432Z,100195.94
2022-09-25T01:15:13.752Z,100201.97
2022-09-25T01:18:26.074Z,100201.56
2022-09-25T01:21:35.276Z,100193.28
2022-09-25T01:25:20.078Z,100184.88
2022-09-25T01:28:31.230Z,100191.03
2022-09-25T01:31:05.335Z,100182.69
2022-09-25T01:33:43.543Z,100190.13
2022-09-25T01:36:25.398Z,100184.34
2022-09-25T01:39:03.195Z,100181.13
2022-09-25T01:41:41.580Z,100179.28
2022-09-25T01:44:23.256Z,100187.22
2022-09-25T01:46:53.884Z,100176.69
2022-09-25T01:49:37.277Z,100185.44
2022-09-25T01:52:13.699Z,100179.72
2022-09-25T01:54:53.203Z,100178.44
2022-09-25T01:57:33.336Z,100171.88
2022-09-25T02:00:06.575Z,100177.63
2022-09-25T02:02:43.409Z,100172.25
2022-09-25T02:05:33.506Z,100175.97
2022-09-25T02:08:14.857Z,100168.09
2022-09-25T02:10:55.994Z,100172.56
2022-09-25T02:13:27.590Z,100168.25
2022-09-25T02:15:59.951Z,100168.38
2022-09-25T02:18:47.719Z,100173.00
2022-09-25T02:21:22.983Z,100162.78
2022-09-25T02:23:59.241Z,100154.88
2022-09-25T02:26:34.252Z,100161.63
2022-09-25T02:29:02.536Z,100155.28
2022-09-25T02:31:40.453Z,100154.41
2022-09-25T02:34:13.827Z,100147.50
2022-09-25T02:36:43.236Z,100153.31
2022-09-25T02:39:11.923Z,100141.53
2022-09-25T02:42:03.407Z,100151.44
2022-09-25T02:45:07.792Z,100137.19
2022-09-25T02:47:55.346Z,100146.81
2022-09-25T02:51:05.220Z,100149.03
2022-09-25T02:54:27.930Z,100142.13
2022-09-25T02:57:19.753Z,100137.47
2022-09-25T02:59:56.025Z,100138.75
2022-09-25T03:02:25.024Z,100140.53
2022-09-25T03:04:53.702Z,100128.28
2022-09-25T03:07:21.320Z,100131.69
2022-09-25T03:09:52.122Z,100131.75
2022-09-25T03:12:19.082Z,100138.41
2022-09-25T03:14:46.841Z,100135.19
2022-09-25T03:17:16.169Z,100135.50
2022-09-25T03:19:43.092Z,100132.88
2022-09-25T03:22:10.182Z,100130.91
2022-09-25T03:24:38.487Z,100125.63
2022-09-25T03:27:05.454Z,100126.44
2022-09-25T03:29:32.724Z,100123.88
2022-09-25T03:31:59.705Z,100132.53
2022-09-25T03:34:26.675Z,100123.63
2022-09-25T03:36:53.600Z,100130.19
2022-09-25T03:39:20.751Z,100125.19
2022-09-25T03:41:48.008Z,100130.81
2022-09-25T03:44:15.363Z,100139.53
2022-09-25T03:46:42.322Z,100135.66
2022-09-25T03:49:10.734Z,100137.63
2022-09-25T03:51:38.928Z,100131.78
2022-09-25T03:54:06.136Z,100123.94
2022-09-25T03:56:33.828Z,100128.44
2022-09-25T03:59:01.286Z,100128.84
2022-09-25T04:01:29.337Z,100126.69
2022-09-25T04:03:56.788Z,100132.97
2022-09-25T04:06:26.392Z,100142.53
2022-09-25T04:08:54.375Z,100128.03
2022-09-25T04:11:24.342Z,100135.47
2022-09-25T04:13:52.746Z,100135.34
2022-09-25T04:16:23.339Z,100131.44
2022-09-25T04:18:50.740Z,100138.25
2022-09-25T04:21:17.829Z,100135.00
2022-09-25T04:24:04.734Z,100135.16
2022-09-25T04:26:32.442Z,100130.28
2022-09-25T04:29:01.677Z,100128.44
2022-09-25T04:31:29.961Z,100122.66
2022-09-25T04:33:56.977Z,100133.94
2022-09-25T04:36:23.936Z,100135.16
2022-09-25T04:38:50.888Z,100126.88
2022-09-25T04:41:20.088Z,100135.06
2022-09-25T04:43:47.498Z,100131.25
2022-09-25T04:46:20.860Z,100121.28
2022-09-25T04:48:48.493Z,100130.22
2022-09-25T04:51:15.528Z,100130.91
2022-09-25T04:53:42.855Z,100135.22
2022-09-25T04:56:15.366Z,100119.06
2022-09-25T04:58:50.571Z,100130.34
2022-09-25T05:01:20.677Z,100123.69
2022-09-25T05:03:54.123Z,100116.56
2022-09-25T05:06:22.540Z,100118.25
2022-09-25T05:08:50.296Z,100112.19
2022-09-25T05:11:17.292Z,100107.31
2022-09-25T05:13:46.870Z,100111.81
2022-09-25T05:16:14.263Z,100117.00
2022-09-25T05:18:41.271Z,100106.66
2022-09-25T05:21:08.214Z,100114.75
2022-09-25T05:23:35.220Z,100109.97
2022-09-25T05:26:02.899Z,100113.78
2022-09-25T05:28:32.079Z,100125.31
2022-09-25T05:31:04.431Z,100125.03
2022-09-25T05:33:35.865Z,100124.41
2022-09-25T05:36:07.643Z,100125.88
2022-09-25T05:38:39.524Z,100127.94
2022-09-25T05:41:09.821Z,100137.91
2022-09-25T05:43:43.220Z,100123.47
2022-09-25T05:46:11.300Z,100125.97
2022-09-25T05:48:38.642Z,100124.63
2022-09-25T05:51:05.946Z,100131.88
2022-09-25T05:53:33.137Z,100123.31
2022-09-25T05:56:03.695Z,100118.31
2022-09-25T05:58:33.506Z,100119.19
2022-09-25T06:01:03.339Z,100129.09
2022-09-25T06:03:31.368Z,100131.78
2022-09-25T06:06:00.173Z,100132.09
2022-09-25T06:08:29.007Z,100131.50
2022-09-25T06:10:55.991Z,100144.75
2022-09-25T06:13:25.357Z,100131.72
2022-09-25T06:15:53.278Z,100135.19
2022-09-25T06:18:22.458Z,100125.94
2022-09-25T06:20:50.406Z,100128.81
2022-09-25T06:23:18.890Z,100127.16
2022-09-25T06:25:46.722Z,100121.22
2022-09-25T06:28:13.666Z,100122.59
2022-09-25T06:30:40.833Z,100131.56
2022-09-25T06:33:12.742Z,100120.72
2022-09-25T06:35:47.821Z,100124.56
2022-09-25T06:38:17.187Z,100126.31
2022-09-25T06:40:45.320Z,100117.38
2022-09-25T06:43:15.970Z,100117.94
2022-09-25T06:45:43.775Z,100111.47
2022-09-25T06:48:14.119Z,100121.44
2022-09-25T06:50:48.004Z,100112.09
2022-09-25T06:53:17.099Z,100112.19
2022-09-25T06:55:47.295Z,100108.69
2022-09-25T06:58:21.667Z,100119.63
2022-09-25T07:00:56.216Z,100115.94
2022-09-25T07:03:42.599Z,100109.66
2022-09-25T07:06:12.112Z,100112.09
2022-09-25T07:08:39.995Z,100110.16
2022-09-25T07:11:07.515Z,100113.50
2022-09-25T07:13:36.209Z,100099.81
2022-09-25T07:16:12.837Z,100102.00
2022-09-25T07:18:40.195Z,100101.81
2022-09-25T07:21:15.357Z,100095.16
2022-09-25T07:23:43.271Z,100099.06
2022-09-25T07:26:11.232Z,100102.50
2022-09-25T07:28:41.187Z,100099.78
2022-09-25T07:31:20.433Z,100100.63
2022-09-25T07:33:48.291Z,100104.66
2022-09-25T07:36:17.577Z,100103.09
2022-09-25T07:38:49.892Z,100099.31
2022-09-25T07:41:18.531Z,100106.81
2022-09-25T07:43:45.883Z,100106.84
2022-09-25T07:46:13.135Z,100096.91
2022-09-25T07:48:40.342Z,100103.78
2022-09-25T07:51:12.172Z,100101.69
2022-09-25T07:53:41.223Z,100097.88
2022-09-25T07:56:09.553Z,100102.41
2022-09-25T07:58:36.629Z,100095.06
2022-09-25T08:01:07.607Z,100100.16
2022-09-25T08:03:35.060Z,100088.81
2022-09-25T08:06:11.961Z,100092.66
2022-09-25T08:08:43.072Z,100100.63
2022-09-25T08:11:13.525Z,100093.75
2022-09-25T08:13:42.329Z,100092.56
2022-09-25T08:16:15.909Z,100090.34
2022-09-25T08:18:46.792Z,100100.28
2022-09-25T08:21:17.510Z,100093.22
2022-09-25T08:23:52.594Z,100092.84
2022-09-25T08:26:21.292Z,100085.19
2022-09-25T08:28:48.479Z,100101.00
2022-09-25T08:31:15.779Z,100094.88
2022-09-25T08:33:49.912Z,100086.25
2022-09-25T08:36:18.054Z,100085.63
2022-09-25T08:38:45.771Z,100084.59
2022-09-25T08:41:27.988Z,100094.78
2022-09-25T08:44:37.285Z,100076.50
2022-09-25T08:47:37.959Z,100076.53
2022-09-25T08:50:24.599Z,100074.16
2022-09-25T08:53:12.190Z,100075.53
2022-09-25T08:56:02.900Z,100070.66
2022-09-25T08:58:42.639Z,100066.91
2022-09-25T09:01:20.898Z,100075.28
2022-09-25T09:04:09.662Z,100065.47
2022-09-25T09:06:41.033Z,100055.19
2022-09-25T09:09:22.099Z,100062.88
2022-09-25T09:11:57.873Z,100057.69
2022-09-25T09:14:30.948Z,100046.44
2022-09-25T09:17:12.439Z,100047.03
2022-09-25T09:19:40.289Z,100051.84
2022-09-25T09:22:11.661Z,100049.41
2022-09-25T09:25:17.591Z,100047.00
2022-09-25T09:28:12.810Z,100039.28
2022-09-25T09:31:13.929Z,100038.81
2022-09-25T09:34:40.918Z,100038.00
2022-09-25T09:37:35.047Z,100041.78
2022-09-25T09:40:51.768Z,100022.09
2022-09-25T09:43:38.034Z,100025.94
2022-09-25T09:46:25.510Z,100026.16
2022-09-25T09:49:25.272Z,100023.69
2022-09-25T09:52:08.234Z,100010.66
2022-09-25T09:54:59.474Z,100017.78
2022-09-25T09:57:33.024Z,99993.94
2022-09-25T10:00:06.316Z,99999.47
2022-09-25T10:02:54.610Z,99991.28
2022-09-25T10:05:43.015Z,99992.47
2022-09-25T10:08:10.883Z,99990.34
2022-09-25T10:10:54.072Z,99984.28
2022-09-25T10:13:32.903Z,99984.59
2022-09-25T10:16:22.764Z,99979.28
2022-09-25T10:19:04.295Z,99979.03
2022-09-25T10:21:40.245Z,99972.88
2022-09-25T10:24:07.326Z,99973.63
2022-09-25T10:26:39.941Z,99981.22
2022-09-25T10:29:22.042Z,99978.88
2022-09-25T10:31:57.058Z,99976.19
2022-09-25T10:34:24.427Z,99973.88
2022-09-25T10:36:54.353Z,99981.06
2022-09-25T10:39:45.192Z,99966.28
2022-09-25T10:42:41.352Z,99975.25
2022-09-25T10:45:26.295Z,99968.13
2022-09-25T10:48:12.081Z,99954.97
2022-09-25T10:50:39.133Z,99961.19
2022-09-25T10:53:07.669Z,99959.44
2022-09-25T10:55:44.021Z,99952.13
2022-09-25T10:58:10.868Z,99949.84
2022-09-25T11:00:57.898Z,99950.09
2022-09-25T11:03:41.592Z,99950.47
2022-09-25T11:06:28.748Z,99935.91
2022-09-25T11:09:22.067Z,99941.94
2022-09-25T11:11:52.398Z,99932.19
2022-09-25T11:14:32.716Z,99926.66
2022-09-25T11:17:06.824Z,99935.91
2022-09-25T11:19:38.770Z,99931.75
2022-09-25T11:22:42.060Z,99936.28
2022-09-25T11:25:29.820Z,99928.44
2022-09-25T11:28:07.408Z,99921.03
2022-09-25T11:31:14.879Z,99906.53
2022-09-25T11:34:09.083Z,99901.63
2022-09-25T11:36:45.912Z,99911.03
2022-09-25T11:39:51.818Z,99906.28
2022-09-25T11:42:53.775Z,99906.53
2022-09-25T11:45:36.596Z,99909.28
2022-09-25T11:48:23.413Z,99901.47
2022-09-25T11:51:22.599Z,99907.56
2022-09-25T11:54:32.026Z,99917.09
2022-09-25T11:57:04.415Z,99910.44
2022-09-25T11:59:59.381Z,99911.72
2022-09-25T12:03:11.931Z,99901.47
2022-09-25T12:06:15.876Z,99896.34
2022-09-25T12:09:03.977Z,99899.56
2022-09-25T12:11:53.900Z,99888.63
2022-09-25T12:15:08.547Z,99892.41
2022-09-25T12:17:54.210Z,99893.88
2022-09-25T12:20:31.063Z,99880.63
2022-09-25T12:23:25.432Z,99881.84
2022-09-25T12:26:15.156Z,99885.34
2022-09-25T12:29:39.277Z,99873.47
2022-09-25T12:32:27.226Z,99868.16
2022-09-25T12:35:19.035Z,99866.53
2022-09-25T12:38:05.670Z,99865.41
2022-09-25T12:41:00.935Z,99861.16
2022-09-25T12:43:45.021Z,99864.16
2022-09-25T12:46:53.105Z,99863.22
2022-09-25T12:49:51.179Z,99858.78
2022-09-25T12:52:33.319Z,99857.84
2022-09-25T12:55:18.889Z,99850.09
2022-09-25T12:57:54.571Z,99849.44
2022-09-25T13:00:24.537Z,99847.81
2022-09-25T13:03:23.892Z,99846.16
2022-09-25T13:06:10.393Z,99840.19
2022-09-25T13:08:57.934Z,99841.50
2022-09-25T13:11:58.901Z,99833.50
2022-09-25T13:14:48.368Z,99843.50
2022-09-25T13:17:16.034Z,99833.91
2022-09-25T13:19:42.984Z,99829.88
2022-09-25T13:22:26.232Z,99833.06
2022-09-25T13:25:13.729Z,99827.47
2022-09-25T13:27:45.871Z,99829.34
2022-09-25T13:30:29.322Z,99821.22
2022-09-25T13:33:01.303Z,99820.34
2022-09-25T13:35:29.236Z,99815.69
2022-09-25T13:38:36.903Z,99818.72
2022-09-25T13:41:14.456Z,99809.34
2022-09-25T13:43:41.668Z,99814.84
2022-09-25T13:46:18.012Z,99814.91
2022-09-25T13:48:45.272Z,99811.88
2022-09-25T13:51:20.571Z,99811.13
2022-09-25T13:54:08.442Z,99806.25
2022-09-25T13:56:41.383Z,99812.31
2022-09-25T13:59:12.783Z,99807.31
2022-09-25T14:01:44.903Z,99799.69
2022-09-25T14:04:15.090Z,99801.59
2022-09-25T14:06:44.757Z,99795.38
2022-09-25T14:09:28.730Z,99787.50
2022-09-25T14:12:39.110Z,99795.47
2022-09-25T14:15:24.561Z,99794.53
2022-09-25T14:17:55.896Z,99798.31
2022-09-25T14:20:47.192Z,99798.50
2022-09-25T14:23:27.204Z,99804.13
2022-09-25T14:26:07.264Z,99798.22
2022-09-25T14:28:45.195Z,99796.97
2022-09-25T14:31:31.609Z,99796.22
2022-09-25T14:34:30.701Z,99794.56
2022-09-25T14:37:59.546Z,99791.00
2022-09-25T14:40:39.795Z,99776.75
2022-09-25T14:46:18.927Z,99775.16
2022-09-25T14:49:20.118Z,99770.00
2022-09-25T14:51:49.012Z,99767.50
2022-09-25T14:54:21.781Z,99767.34
2022-09-25T14:56:55.995Z,99775.13
2022-09-25T14:59:43.362Z,99768.91
2022-09-25T15:02:43.057Z,99758.88
2022-09-25T15:05:24.240Z,99759.97
2022-09-25T15:07:51.668Z,99763.66
2022-09-25T15:10:29.725Z,99761.94
2022-09-25T15:13:18.893Z,99756.78
2022-09-25T15:16:15.259Z,99752.22
2022-09-25T15:18:54.241Z,99761.09
2022-09-25T15:21:25.609Z,99754.88
2022-09-25T15:23:55.808Z,99758.56
2022-09-25T15:26:23.336Z,99755.75
2022-09-25T15:28:51.801Z,99759.41
2022-09-25T15:31:19.126Z,99746.25
2022-09-25T15:34:03.855Z,99746.25
2022-09-25T15:36:31.003Z,99744.66
2022-09-25T15:39:03.226Z,99733.78
2022-09-25T15:41:30.432Z,99737.47
2022-09-25T15:44:26.096Z,99749.91
2022-09-25T15:47:00.682Z,99745.69
2022-09-25T15:49:42.863Z,99745.56
2022-09-25T15:52:25.149Z,99749.16
2022-09-25T15:54:52.178Z,99747.53
2022-09-25T15:57:29.229Z,99739.47
2022-09-25T16:00:16.811Z,99745.69
2022-09-25T16:03:21.306Z,99736.81
2022-09-25T16:05:50.389Z,99735.19
2022-09-25T16:08:36.329Z,99737.91
2022-09-25T16:11:22.610Z,99738.84
2022-09-25T16:13:54.410Z,99735.31
2022-09-25T16:16:31.271Z,99737.09
2022-09-25T16:19:21.506Z,99738.13
2022-09-25T16:21:49.004Z,99726.66
2022-09-25T16:24:25.830Z,99725.03
2022-09-25T16:27:02.712Z,99721.44
2022-09-25T16:29:39.158Z,99726.78
2022-09-25T16:32:15.178Z,99725.09
2022-09-25T16:34:50.485Z,99730.47
2022-09-25T16:37:23.858Z,99721.63
2022-09-25T16:40:17.765Z,99717.22
2022-09-25T16:42:47.432Z,99717.22
2022-09-25T16:45:29.472Z,99722.59
2022-09-25T16:48:00.616Z,99715.50
2022-09-25T16:50:33.381Z,99713.75
2022-09-25T16:53:03.465Z,99718.22
2022-09-25T16:55:30.742Z,99718.22
2022-09-25T16:57:58.566Z,99727.09
2022-09-25T17:00:28.323Z,99721.78
2022-09-25T17:02:55.909Z,99723.53
2022-09-25T17:05:26.899Z,99721.78
2022-09-25T17:08:00.074Z,99720.94
2022-09-25T17:10:31.735Z,99719.16
2022-09-25T17:13:01.787Z,99718.28
2022-09-25T17:15:36.605Z,99726.25
2022-09-25T17:18:11.945Z,99713.81
2022-09-25T17:20:38.850Z,99721.81
2022-09-25T17:23:06.620Z,99722.72
2022-09-25T17:25:52.863Z,99722.72
2022-09-25T17:28:19.932Z,99723.63
2022-09-25T17:30:46.955Z,99718.25
2022-09-25T17:33:21.524Z,99724.47
2022-09-25T17:36:05.984Z,99728.06
2022-09-25T17:38:34.123Z,99722.72
2022-09-25T17:41:06.099Z,99720.03
2022-09-25T17:43:33.326Z,99724.50
2022-09-25T17:46:01.258Z,99716.50
2022-09-25T17:48:31.494Z,99712.94
2022-09-25T17:51:19.387Z,99717.38
2022-09-25T17:53:49.033Z,99716.50
2022-09-25T17:56:16.088Z,99711.19
2022-09-25T17:58:44.533Z,99707.63
2022-09-25T18:01:22.417Z,99711.16
2022-09-25T18:03:56.287Z,99708.50
2022-09-25T18:06:25.230Z,99695.16
2022-09-25T18:08:54.484Z,99700.47
2022-09-25T18:11:23.371Z,99695.13
2022-09-25T18:14:01.001Z,99701.34
2022-09-25T18:16:31.974Z,99704.91
2022-09-25T18:19:17.989Z,99697.78
2022-09-25T18:22:03.820Z,99699.53
2022-09-25T18:24:30.798Z,99705.75
2022-09-25T18:26:58.314Z,99699.47
2022-09-25T18:29:25.849Z,99696.84
2022-09-25T18:31:53.147Z,99703.09
2022-09-25T18:34:21.866Z,99699.53
2022-09-25T18:36:52.138Z,99694.22
2022-09-25T18:39:20.422Z,99691.56
2022-09-25T18:41:48.376Z,99693.34
2022-09-25T18:44:17.902Z,99687.13
2022-09-25T18:46:45.324Z,99682.66
2022-09-25T18:49:12.576Z,99687.09
2022-09-25T18:51:40.182Z,99681.78
2022-09-25T18:54:08.795Z,99684.38
2022-09-25T18:56:36.093Z,99689.78
2022-09-25T18:59:07.611Z,99686.22
2022-09-25T19:01:36.151Z,99685.31
2022-09-25T19:04:03.891Z,99690.66
2022-09-25T19:06:30.976Z,99687.97
2022-09-25T19:08:59.481Z,99694.19
2022-09-25T19:11:31.134Z,99687.09
2022-09-25T19:13:58.929Z,99685.28
2022-09-25T19:16:26.015Z,99691.47
2022-09-25T19:18:53.025Z,99686.97
2022-09-25T19:21:26.440Z,99688.81
2022-09-25T19:23:54.102Z,99683.47
2022-09-25T19:26:25.862Z,99689.69
2022-09-25T19:28:53.283Z,99682.59
2022-09-25T19:31:24.466Z,99691.34
2022-09-25T19:33:53.017Z,99690.47
2022-09-25T19:36:26.984Z,99676.22
2022-09-25T19:38:54.644Z,99679.81
2022-09-25T19:41:38.063Z,99670.94
2022-09-25T19:44:13.136Z,99671.78
2022-09-25T19:46:47.939Z,99665.59
2022-09-25T19:49:17.858Z,99660.22
2022-09-25T19:51:45.402Z,99661.97
2022-09-25T19:54:14.825Z,99661.97
2022-09-25T19:56:42.428Z,99663.63
2022-09-25T19:59:15.240Z,99662.72
2022-09-25T20:01:43.222Z,99660.03
2022-09-25T20:04:15.725Z,99663.59
2022-09-25T20:06:44.345Z,99653.75
2022-09-25T20:09:11.723Z,99653.72
2022-09-25T20:11:38.693Z,99661.66
2022-09-25T20:14:07.557Z,99661.63
2022-09-25T20:16:36.248Z,99655.28
2022-09-25T20:19:06.451Z,99662.34
2022-09-25T20:21:38.670Z,99665.03
2022-09-25T20:24:08.011Z,99660.59
2022-09-25T20:26:36.556Z,99663.13
2022-09-25T20:29:08.830Z,99660.47
2022-09-25T20:31:38.262Z,99662.06
2022-09-25T20:34:05.652Z,99659.22
2022-09-25T20:36:32.853Z,99662.72
2022-09-25T20:39:01.012Z,99654.81
2022-09-25T20:41:27.951Z,99662.78
2022-09-25T20:43:57.630Z,99655.66
2022-09-25T20:46:26.482Z,99658.06
2022-09-25T20:48:57.530Z,99660.59
2022-09-25T20:51:35.257Z,99663.31
2022-09-25T20:54:08.981Z,99663.34
2022-09-25T20:56:38.144Z,99649.13
2022-09-25T20:59:05.964Z,99660.59
2022-09-25T21:01:36.736Z,99655.13
2022-09-25T21:04:08.051Z,99660.47
2022-09-25T21:06:38.093Z,99660.44
2022-09-25T21:09:08.956Z,99660.44
2022-09-25T21:11:37.479Z,99662.31
2022-09-25T21:14:04.585Z,99655.97
2022-09-25T21:16:33.341Z,99658.66
2022-09-25T21:19:04.581Z,99647.94
2022-09-25T21:21:33.419Z,99662.91
2022-09-25T21:24:01.379Z,99657.66
2022-09-25T21:26:31.085Z,99647.91
2022-09-25T21:29:01.134Z,99654.09
2022-09-25T21:31:33.853Z,99664.69
2022-09-25T21:34:01.222Z,99656.66
2022-09-25T21:36:28.879Z,99655.94
2022-09-25T21:38:56.585Z,99655.81
2022-09-25T21:41:26.996Z,99658.34
2022-09-25T21:44:00.201Z,99651.19
2022-09-25T21:46:28.243Z,99645.91
2022-09-25T21:49:05.269Z,99644.97
2022-09-25T21:51:38.466Z,99642.22
2022-09-25T21:54:08.667Z,99636.22
2022-09-25T21:56:36.284Z,99640.50
2022-09-25T21:59:08.761Z,99642.31
2022-09-25T22:01:39.542Z,99631.66
2022-09-25T22:04:10.363Z,99629.91
2022-09-25T22:06:41.275Z,99626.38
2022-09-25T22:09:19.149Z,99622.81
2022-09-25T22:11:48.014Z,99617.44
2022-09-25T22:14:16.645Z,99619.19
2022-09-25T22:16:47.160Z,99622.84
2022-09-25T22:19:23.312Z,99605.97
2022-09-25T22:21:52.467Z,99611.09
2022-09-25T22:24:20.008Z,99608.69
2022-09-25T22:26:48.984Z,99594.34
2022-09-25T22:29:17.236Z,99611.28
2022-09-25T22:31:44.543Z,99608.50
2022-09-25T22:34:26.423Z,99602.28
2022-09-25T22:36:58.997Z,99611.97
2022-09-25T22:39:28.750Z,99612.88
2022-09-25T22:41:56.358Z,99606.50
2022-09-25T22:44:24.176Z,99601.22
2022-09-25T22:46:51.353Z,99593.53
2022-09-25T22:49:18.714Z,99596.00
2022-09-25T22:51:46.153Z,99589.72
2022-09-25T22:54:14.673Z,99592.38
2022-09-25T22:56:42.590Z,99588.00
2022-09-25T22:59:16.179Z,99587.06
2022-09-25T23:01:52.765Z,99582.56
2022-09-25T23:04:23.657Z,99582.50
2022-09-25T23:06:51.467Z,99576.50
2022-09-25T23:09:22.519Z,99571.06
2022-09-25T23:11:50.072Z,99571.78
2022-09-25T23:14:35.189Z,99567.41
2022-09-25T23:17:02.188Z,99565.63
2022-09-25T23:19:29.187Z,99562.84
2022-09-25T23:21:56.529Z,99564.91
2022-09-25T23:24:24.388Z,99562.03
2022-09-25T23:26:51.942Z,99568.13
2022-09-25T23:29:20.905Z,99566.34
2022-09-25T23:31:49.907Z,99572.63
2022-09-25T23:34:17.326Z,99554.84
2022-09-25T23:36:44.415Z,99568.13
2022-09-25T23:39:17.243Z,99565.31
2022-09-25T23:41:44.194Z,99553.88
2022-09-25T23:44:12.155Z,99552.25
2022-09-25T23:46:42.716Z,99558.22
2022-09-25T23:49:10.822Z,99560.94
2022-09-25T23:51:38.592Z,99562.66
2022-09-25T23:54:06.082Z,99559.16
2022-09-25T23:56:35.390Z,99553.72
2022-09-25T23:59:04.674Z,99555.50
